createdAt,value
2016-11-11T00:00:13.101Z,0
2016-11-11T00:01:26.727Z,0
2016-11-11T00:02:40.380Z,0
2016-11-11T00:03:53.990Z,0
2016-11-11T00:05:07.603Z,0
2016-11-11T00:06:20.749Z,0
2016-11-11T00:07:34.447Z,0
2016-11-11T00:08:47.828Z,0
2016-11-11T00:10:01.547Z,0
2016-11-11T00:11:15.519Z,0
2016-11-11T00:12:29.177Z,0
2016-11-11T00:13:42.878Z,0
2016-11-11T00:14:56.532Z,0
2016-11-11T00:16:09.383Z,0
2016-11-11T00:17:22.451Z,0
2016-11-11T00:18:36.233Z,0
2016-11-11T00:19:50.067Z,0
2016-11-11T00:21:03.428Z,0
2016-11-11T00:22:15.991Z,0
2016-11-11T00:23:29.671Z,0
2016-11-11T00:24:43.233Z,0
2016-11-11T00:25:56.331Z,0
2016-11-11T00:27:09.945Z,0
2016-11-11T00:28:22.873Z,0
2016-11-11T00:29:35.388Z,0
2016-11-11T00:30:48.413Z,0
2016-11-11T00:32:01.512Z,0
2016-11-11T00:33:15.599Z,0
2016-11-11T00:34:28.721Z,0
2016-11-11T00:35:41.950Z,0
2016-11-11T00:36:55.016Z,0
2016-11-11T00:38:08.705Z,0
2016-11-11T00:39:22.288Z,0
2016-11-11T00:40:36.228Z,0
2016-11-11T00:41:49.561Z,0
2016-11-11T00:43:03.230Z,0
2016-11-11T00:44:16.768Z,0
2016-11-11T00:45:30.491Z,0
2016-11-11T00:46:43.586Z,0
2016-11-11T00:47:57.245Z,0
2016-11-11T00:49:10.928Z,0
2016-11-11T00:50:24.557Z,0
2016-11-11T00:51:38.187Z,0
2016-11-11T00:52:51.857Z,0
2016-11-11T00:54:05.446Z,0
2016-11-11T00:55:18.497Z,0
2016-11-11T00:56:31.637Z,0
2016-11-11T00:57:45.543Z,0
2016-11-11T00:58:59.110Z,0
2016-11-11T01:00:12.705Z,0
2016-11-11T01:01:25.827Z,0
2016-11-11T01:02:39.458Z,0
2016-11-11T01:03:52.989Z,0
2016-11-11T01:05:05.436Z,0
2016-11-11T01:06:18.483Z,0
2016-11-11T01:07:31.614Z,0
2016-11-11T01:08:45.507Z,0
2016-11-11T01:09:59.118Z,0
2016-11-11T01:11:12.166Z,0
2016-11-11T01:12:25.768Z,0
2016-11-11T01:13:39.112Z,0
2016-11-11T01:14:52.654Z,0
2016-11-11T01:16:06.348Z,0
2016-11-11T01:17:19.705Z,0
2016-11-11T01:18:33.356Z,0
2016-11-11T01:19:46.953Z,0
2016-11-11T01:21:00.554Z,0
2016-11-11T01:22:14.210Z,0
2016-11-11T01:23:27.881Z,0
2016-11-11T01:24:40.990Z,0
2016-11-11T01:25:54.183Z,0
2016-11-11T01:27:07.308Z,0
2016-11-11T01:28:20.419Z,0
2016-11-11T01:29:33.962Z,0
2016-11-11T01:30:47.028Z,0
2016-11-11T01:32:00.167Z,0
2016-11-11T01:33:13.771Z,0
2016-11-11T01:34:27.407Z,0
2016-11-11T01:35:40.553Z,0
2016-11-11T01:36:54.152Z,0
2016-11-11T01:38:07.261Z,0
2016-11-11T01:39:19.539Z,0
2016-11-11T01:40:32.297Z,0
2016-11-11T01:41:45.442Z,0
2016-11-11T01:42:59.033Z,0
2016-11-11T01:44:12.674Z,0
2016-11-11T01:45:26.279Z,0
2016-11-11T01:46:39.950Z,0
2016-11-11T01:47:52.980Z,0
2016-11-11T01:49:06.551Z,0
2016-11-11T01:50:19.055Z,0
2016-11-11T01:51:33.110Z,0
2016-11-11T01:52:46.731Z,0
2016-11-11T01:54:00.313Z,0
2016-11-11T01:55:13.923Z,0
2016-11-11T01:56:26.962Z,0
2016-11-11T01:57:39.953Z,0
2016-11-11T01:58:53.627Z,0
2016-11-11T02:00:07.207Z,0
2016-11-11T02:01:20.247Z,0
2016-11-11T02:02:33.861Z,0
2016-11-11T02:03:47.216Z,0
2016-11-11T02:05:00.339Z,0
2016-11-11T02:06:14.057Z,0
2016-11-11T02:07:27.156Z,0
2016-11-11T02:08:40.737Z,0
2016-11-11T02:09:53.251Z,0
2016-11-11T02:11:06.915Z,0
2016-11-11T02:12:19.947Z,0
2016-11-11T02:13:33.601Z,0
2016-11-11T02:14:46.126Z,0
2016-11-11T02:15:59.724Z,0
2016-11-11T02:17:12.746Z,0
2016-11-11T02:18:26.363Z,0
2016-11-11T02:19:39.621Z,0
2016-11-11T02:20:53.221Z,0
2016-11-11T02:22:06.881Z,0
2016-11-11T02:23:20.015Z,0
2016-11-11T02:24:33.677Z,0
2016-11-11T02:25:47.294Z,0
2016-11-11T02:27:00.470Z,0
2016-11-11T02:28:14.064Z,0
2016-11-11T02:29:27.664Z,0
2016-11-11T02:30:40.986Z,0
2016-11-11T02:31:54.350Z,0
2016-11-11T02:33:08.008Z,0
2016-11-11T02:34:21.623Z,0
2016-11-11T02:35:35.262Z,0
2016-11-11T02:36:48.958Z,0
2016-11-11T02:38:01.971Z,0
2016-11-11T02:39:15.548Z,0
2016-11-11T02:40:29.097Z,0
2016-11-11T02:41:42.907Z,0
2016-11-11T02:42:56.497Z,0
2016-11-11T02:44:10.107Z,0
2016-11-11T02:45:23.678Z,0
2016-11-11T02:46:36.822Z,0
2016-11-11T02:47:49.891Z,0
2016-11-11T02:49:03.118Z,0
2016-11-11T02:50:16.821Z,0
2016-11-11T02:51:30.464Z,0
2016-11-11T02:52:44.101Z,0
2016-11-11T02:53:57.794Z,0
2016-11-11T02:55:11.438Z,0
2016-11-11T02:56:24.009Z,0
2016-11-11T02:57:37.104Z,0
2016-11-11T02:58:50.490Z,0
2016-11-11T03:00:03.114Z,0
2016-11-11T03:01:16.654Z,0
2016-11-11T03:02:30.356Z,0
2016-11-11T03:03:43.658Z,0
2016-11-11T03:04:57.245Z,0
2016-11-11T03:06:10.375Z,0
2016-11-11T03:07:22.942Z,0
2016-11-11T03:08:36.521Z,0
2016-11-11T03:09:50.184Z,0
2016-11-11T03:11:03.241Z,0
2016-11-11T03:12:16.435Z,0
2016-11-11T03:13:30.067Z,0
2016-11-11T03:14:43.718Z,0
2016-11-11T03:15:57.037Z,0
2016-11-11T03:17:10.696Z,0
2016-11-11T03:18:23.806Z,0
2016-11-11T03:19:37.445Z,0
2016-11-11T03:20:50.523Z,0
2016-11-11T03:22:04.134Z,0
2016-11-11T03:23:17.714Z,0
2016-11-11T03:24:30.975Z,0
2016-11-11T03:25:44.049Z,0
2016-11-11T03:26:57.592Z,0
2016-11-11T03:28:11.147Z,0
2016-11-11T03:29:24.514Z,0
2016-11-11T03:30:38.187Z,0
2016-11-11T03:32:22.416Z,0
2016-11-11T03:33:35.686Z,0
2016-11-11T03:34:49.417Z,0
2016-11-11T03:36:03.103Z,0
2016-11-11T03:37:16.468Z,0
2016-11-11T03:38:30.098Z,0
2016-11-11T03:39:43.744Z,0
2016-11-11T03:40:57.366Z,0
2016-11-11T03:42:10.998Z,0
2016-11-11T03:43:23.493Z,0
2016-11-11T03:44:36.599Z,0
2016-11-11T03:45:50.222Z,0
2016-11-11T03:47:03.240Z,0
2016-11-11T03:48:16.901Z,0
2016-11-11T03:49:30.057Z,0
2016-11-11T03:50:43.665Z,0
2016-11-11T03:51:56.777Z,0
2016-11-11T03:53:10.687Z,0
2016-11-11T03:54:24.366Z,0
2016-11-11T03:55:38.077Z,0
2016-11-11T03:56:50.325Z,0
2016-11-11T03:58:03.404Z,0
2016-11-11T03:59:16.512Z,0
2016-11-11T04:00:29.605Z,0
2016-11-11T04:01:43.181Z,0
2016-11-11T04:02:56.741Z,0
2016-11-11T04:05:53.993Z,0
2016-11-11T04:07:07.098Z,0
2016-11-11T04:08:20.085Z,0
2016-11-11T04:09:33.070Z,0
2016-11-11T04:10:46.807Z,0
2016-11-11T04:12:00.445Z,0
2016-11-11T04:13:13.582Z,0
2016-11-11T04:14:27.272Z,0
2016-11-11T04:15:40.343Z,0
2016-11-11T04:16:54.008Z,0
2016-11-11T04:18:07.599Z,0
2016-11-11T04:19:21.103Z,0
2016-11-11T04:20:34.761Z,0
2016-11-11T04:21:48.561Z,0
2016-11-11T04:23:02.067Z,0
2016-11-11T04:24:15.715Z,0
2016-11-11T04:25:28.771Z,0
2016-11-11T04:26:42.434Z,0
2016-11-11T04:27:55.470Z,0
2016-11-11T04:29:08.620Z,0
2016-11-11T04:30:22.179Z,0
2016-11-11T04:31:35.015Z,0
2016-11-11T04:32:48.606Z,0
2016-11-11T04:34:02.215Z,0
2016-11-11T04:35:15.300Z,0
2016-11-11T04:36:29.018Z,0
2016-11-11T04:37:42.403Z,0
2016-11-11T04:38:54.851Z,0
2016-11-11T04:40:08.538Z,0
2016-11-11T04:41:22.664Z,0
2016-11-11T04:42:36.224Z,0
2016-11-11T04:43:48.741Z,0
2016-11-11T04:45:02.381Z,0
2016-11-11T04:46:15.559Z,0
2016-11-11T04:47:29.204Z,0
2016-11-11T04:48:42.305Z,0
2016-11-11T04:49:55.694Z,0
2016-11-11T04:51:08.769Z,0
2016-11-11T04:52:22.317Z,0
2016-11-11T04:53:36.355Z,0
2016-11-11T04:54:48.889Z,0
2016-11-11T04:56:01.952Z,0
2016-11-11T04:57:46.177Z,0
2016-11-11T04:58:59.858Z,0
2016-11-11T05:00:13.407Z,0
2016-11-11T05:01:26.565Z,0
2016-11-11T05:02:39.574Z,0
2016-11-11T05:03:52.708Z,0
2016-11-11T05:05:05.741Z,0
2016-11-11T05:06:19.261Z,0
2016-11-11T05:07:31.512Z,0
2016-11-11T05:08:44.620Z,0
2016-11-11T05:09:58.210Z,0
2016-11-11T05:11:11.368Z,0
2016-11-11T05:12:25.082Z,0
2016-11-11T05:13:38.418Z,0
2016-11-11T05:14:50.876Z,0
2016-11-11T05:16:04.058Z,0
2016-11-11T05:17:17.346Z,0
2016-11-11T05:18:31.029Z,0
2016-11-11T05:19:44.607Z,0
2016-11-11T05:20:58.150Z,0
2016-11-11T05:22:41.950Z,0
2016-11-11T05:23:55.073Z,0
2016-11-11T05:25:08.150Z,0
2016-11-11T05:26:21.265Z,0
2016-11-11T05:27:34.341Z,0
2016-11-11T05:28:47.940Z,0
2016-11-11T05:30:01.482Z,0
2016-11-11T05:31:14.886Z,0
2016-11-11T05:32:27.961Z,0
2016-11-11T05:33:41.625Z,0
2016-11-11T05:34:54.711Z,0
2016-11-11T05:36:08.045Z,0
2016-11-11T05:37:21.677Z,0
2016-11-11T05:38:35.302Z,0
2016-11-11T05:39:48.776Z,0
2016-11-11T05:41:02.474Z,0
2016-11-11T05:42:46.726Z,0
2016-11-11T05:43:59.039Z,0
2016-11-11T05:45:12.674Z,0
2016-11-11T05:46:26.208Z,0
2016-11-11T05:47:39.434Z,0
2016-11-11T05:48:52.581Z,0
2016-11-11T05:50:05.587Z,0
2016-11-11T05:51:50.262Z,0
2016-11-11T05:53:03.273Z,0
2016-11-11T05:54:16.883Z,0
2016-11-11T05:55:29.961Z,0
2016-11-11T05:56:43.347Z,0
2016-11-11T05:57:56.953Z,0
2016-11-11T05:59:10.527Z,0
2016-11-11T06:00:23.632Z,0
2016-11-11T06:01:37.241Z,0
2016-11-11T06:02:50.699Z,0
2016-11-11T06:04:03.788Z,0
2016-11-11T06:05:17.484Z,0
2016-11-11T06:06:30.672Z,0
2016-11-11T06:07:44.266Z,0
2016-11-11T06:08:57.326Z,0
2016-11-11T06:10:10.449Z,0
2016-11-11T06:11:23.503Z,0
2016-11-11T06:12:37.182Z,0
2016-11-11T06:13:50.748Z,0
2016-11-11T06:15:04.315Z,0
2016-11-11T06:16:17.974Z,0
2016-11-11T06:17:31.565Z,0
2016-11-11T06:18:45.125Z,0
2016-11-11T06:19:58.744Z,0
2016-11-11T06:21:11.293Z,0
2016-11-11T06:22:24.970Z,0
2016-11-11T06:23:38.648Z,0
2016-11-11T06:24:52.294Z,0
2016-11-11T06:26:06.377Z,0
2016-11-11T06:27:19.979Z,0
2016-11-11T06:28:33.619Z,0
2016-11-11T06:29:46.172Z,0
2016-11-11T06:30:59.301Z,0
2016-11-11T06:32:12.833Z,0
2016-11-11T06:33:26.413Z,0
2016-11-11T06:34:40.012Z,0
2016-11-11T06:35:53.615Z,0
2016-11-11T06:37:08.453Z,0
2016-11-11T06:38:22.024Z,0
2016-11-11T06:39:35.161Z,0
2016-11-11T06:40:48.300Z,0
2016-11-11T06:42:01.831Z,0
2016-11-11T06:43:15.106Z,0
2016-11-11T06:44:28.121Z,0
2016-11-11T06:45:41.773Z,0
2016-11-11T06:46:54.848Z,0
2016-11-11T06:48:08.445Z,0
2016-11-11T06:49:21.640Z,0
2016-11-11T06:50:34.735Z,0
2016-11-11T06:51:48.311Z,0
2016-11-11T06:53:01.357Z,0
2016-11-11T06:54:14.483Z,0
2016-11-11T06:55:27.550Z,0
2016-11-11T06:56:41.184Z,0
2016-11-11T06:57:54.794Z,0
2016-11-11T06:59:07.878Z,0
2016-11-11T07:00:21.510Z,0
2016-11-11T07:01:34.251Z,0
2016-11-11T07:02:47.800Z,0
2016-11-11T07:04:00.874Z,0
2016-11-11T07:05:13.977Z,0
2016-11-11T07:06:25.953Z,0
2016-11-11T07:07:39.480Z,0
2016-11-11T07:08:53.076Z,0
2016-11-11T07:10:06.705Z,0
2016-11-11T07:11:20.307Z,0
2016-11-11T07:12:33.889Z,0
2016-11-11T07:13:46.995Z,0
2016-11-11T07:15:00.105Z,0
2016-11-11T07:16:13.189Z,0
2016-11-11T07:17:26.811Z,0
2016-11-11T07:18:40.462Z,0
2016-11-11T07:19:53.466Z,0
2016-11-11T07:21:06.475Z,0
2016-11-11T07:22:20.085Z,0
2016-11-11T07:24:04.289Z,0
2016-11-11T07:25:17.941Z,0
2016-11-11T07:26:30.449Z,0
2016-11-11T07:27:44.036Z,0
2016-11-11T07:28:57.155Z,0
2016-11-11T07:30:10.216Z,0
2016-11-11T07:31:23.280Z,0
2016-11-11T07:32:36.418Z,0
2016-11-11T07:33:49.549Z,0
2016-11-11T07:35:02.878Z,0
2016-11-11T07:36:16.039Z,0
2016-11-11T07:37:29.096Z,0
2016-11-11T07:38:42.699Z,0
2016-11-11T07:39:56.366Z,0
2016-11-11T07:41:09.513Z,0
2016-11-11T07:42:23.179Z,0
2016-11-11T07:43:36.742Z,0
2016-11-11T07:44:50.330Z,0
2016-11-11T07:46:03.404Z,0
2016-11-11T07:47:17.020Z,0
2016-11-11T07:48:30.119Z,0
2016-11-11T07:49:43.685Z,0
2016-11-11T07:50:57.299Z,0
2016-11-11T07:52:10.653Z,0
2016-11-11T07:53:24.309Z,0
2016-11-11T07:54:37.381Z,0
2016-11-11T07:55:51.108Z,0
2016-11-11T07:57:04.225Z,0
2016-11-11T07:58:17.283Z,0
2016-11-11T07:59:30.877Z,0
2016-11-11T08:00:44.388Z,0
2016-11-11T08:01:58.091Z,0
2016-11-11T08:03:11.714Z,0
2016-11-11T08:04:25.401Z,0
2016-11-11T08:05:38.992Z,0
2016-11-11T08:06:51.513Z,0
2016-11-11T08:08:05.132Z,0
2016-11-11T08:09:18.156Z,0
2016-11-11T08:10:31.845Z,0
2016-11-11T08:11:45.713Z,0
2016-11-11T08:12:59.388Z,0
2016-11-11T08:14:12.520Z,0
2016-11-11T08:15:26.129Z,0
2016-11-11T08:16:39.739Z,0
2016-11-11T08:17:53.617Z,0
2016-11-11T08:19:07.262Z,0
2016-11-11T08:20:20.541Z,0
2016-11-11T08:21:34.141Z,0
2016-11-11T08:22:47.462Z,0
2016-11-11T08:24:01.101Z,0
2016-11-11T08:25:14.110Z,0
2016-11-11T08:26:27.765Z,0
2016-11-11T08:27:41.378Z,0
2016-11-11T08:28:54.980Z,0
2016-11-11T08:30:08.040Z,0
2016-11-11T08:31:21.192Z,0
2016-11-11T08:32:34.837Z,0
2016-11-11T08:33:48.515Z,0
2016-11-11T08:35:02.194Z,0
2016-11-11T08:36:15.801Z,0
2016-11-11T08:37:28.898Z,0
2016-11-11T08:38:41.976Z,5
2016-11-11T08:39:55.191Z,5
2016-11-11T08:41:09.513Z,5
2016-11-11T08:42:22.563Z,5
2016-11-11T08:43:35.365Z,5
2016-11-11T08:44:48.965Z,5
2016-11-11T08:46:02.614Z,5
2016-11-11T08:47:16.335Z,5
2016-11-11T08:48:29.507Z,5
2016-11-11T08:49:43.072Z,5
2016-11-11T08:50:56.747Z,5
2016-11-11T08:52:10.116Z,5
2016-11-11T08:53:23.696Z,5
2016-11-11T08:54:37.259Z,5
2016-11-11T08:55:50.937Z,5
2016-11-11T08:57:04.440Z,5
2016-11-11T08:58:17.092Z,5
2016-11-11T08:59:30.694Z,5
2016-11-11T09:00:44.321Z,5
2016-11-11T09:01:58.033Z,5
2016-11-11T09:03:11.581Z,5
2016-11-11T09:04:25.224Z,5
2016-11-11T09:05:38.766Z,5
2016-11-11T09:07:06.468Z,5
2016-11-11T09:08:20.033Z,5
2016-11-11T09:09:33.269Z,5
2016-11-11T09:10:46.798Z,5
2016-11-11T09:12:00.402Z,5
2016-11-11T09:13:13.768Z,5
2016-11-11T09:14:27.367Z,5
2016-11-11T09:15:40.927Z,5
2016-11-11T09:16:54.606Z,5
2016-11-11T09:18:08.251Z,5
2016-11-11T09:19:21.999Z,5
2016-11-11T09:20:35.652Z,5
2016-11-11T09:21:49.277Z,5
2016-11-11T09:23:02.886Z,5
2016-11-11T09:24:15.998Z,5
2016-11-11T09:25:29.421Z,5
2016-11-11T09:26:42.806Z,5
2016-11-11T09:27:56.368Z,5
2016-11-11T09:29:09.916Z,5
2016-11-11T09:30:54.548Z,5
2016-11-11T09:32:08.250Z,5
2016-11-11T09:33:21.524Z,5
2016-11-11T09:34:35.091Z,10
2016-11-11T09:35:49.000Z,10
2016-11-11T09:37:02.548Z,10
2016-11-11T09:38:16.078Z,10
2016-11-11T09:40:00.805Z,10
2016-11-11T09:41:14.384Z,10
2016-11-11T09:42:27.976Z,10
2016-11-11T09:43:41.712Z,10
2016-11-11T09:46:39.967Z,10
2016-11-11T09:47:53.558Z,10
2016-11-11T09:49:07.089Z,15
2016-11-11T09:50:20.776Z,15
2016-11-11T09:51:33.816Z,15
2016-11-11T09:52:47.486Z,15
2016-11-11T09:54:01.106Z,15
2016-11-11T09:55:14.783Z,15
2016-11-11T09:56:28.125Z,15
2016-11-11T09:57:41.708Z,15
2016-11-11T09:58:55.267Z,15
2016-11-11T10:00:08.984Z,15
2016-11-11T10:01:22.615Z,10
2016-11-11T10:02:36.490Z,10
2016-11-11T10:03:50.131Z,10
2016-11-11T10:05:03.359Z,10
2016-11-11T10:06:17.015Z,10
2016-11-11T10:07:30.574Z,10
2016-11-11T10:08:44.146Z,10
2016-11-11T10:09:57.848Z,10
2016-11-11T10:11:11.506Z,10
2016-11-11T10:12:25.137Z,10
2016-11-11T10:13:38.695Z,10
2016-11-11T10:14:52.385Z,10
2016-11-11T10:16:06.488Z,10
2016-11-11T10:17:20.115Z,10
2016-11-11T10:18:33.747Z,10
2016-11-11T10:19:47.346Z,10
2016-11-11T10:21:01.039Z,15
2016-11-11T10:22:14.654Z,15
2016-11-11T10:23:28.305Z,15
2016-11-11T10:24:41.872Z,15
2016-11-11T10:25:55.590Z,15
2016-11-11T10:27:09.612Z,15
2016-11-11T10:28:22.970Z,15
2016-11-11T10:29:36.518Z,15
2016-11-11T10:30:50.081Z,15
2016-11-11T10:32:03.630Z,15
2016-11-11T10:33:17.230Z,15
2016-11-11T10:34:30.790Z,15
2016-11-11T10:35:43.296Z,15
2016-11-11T10:36:56.581Z,15
2016-11-11T10:38:09.909Z,15
2016-11-11T10:39:22.690Z,15
2016-11-11T10:40:36.496Z,15
2016-11-11T10:41:50.134Z,15
2016-11-11T10:43:03.669Z,15
2016-11-11T10:44:17.062Z,15
2016-11-11T10:45:30.662Z,15
2016-11-11T10:46:44.282Z,15
2016-11-11T10:47:57.882Z,15
2016-11-11T10:49:10.917Z,15
2016-11-11T10:50:24.295Z,20
2016-11-11T10:51:37.981Z,20
2016-11-11T10:52:51.619Z,20
2016-11-11T10:54:05.259Z,20
2016-11-11T10:55:19.058Z,20
2016-11-11T10:56:32.606Z,20
2016-11-11T10:57:46.148Z,20
2016-11-11T10:58:59.780Z,20
2016-11-11T11:00:13.388Z,20
2016-11-11T11:01:26.979Z,20
2016-11-11T11:02:40.612Z,20
2016-11-11T11:03:54.284Z,20
2016-11-11T11:05:07.898Z,20
2016-11-11T11:06:21.407Z,20
2016-11-11T11:07:35.087Z,20
2016-11-11T11:08:48.986Z,20
2016-11-11T11:10:02.523Z,20
2016-11-11T11:11:16.240Z,20
2016-11-11T11:12:29.883Z,20
2016-11-11T11:13:43.401Z,20
2016-11-11T11:14:57.057Z,20
2016-11-11T11:16:10.602Z,20
2016-11-11T11:17:24.202Z,20
2016-11-11T11:18:37.548Z,20
2016-11-11T11:20:22.201Z,20
2016-11-11T11:21:35.939Z,20
2016-11-11T11:22:49.570Z,20
2016-11-11T11:24:03.353Z,25
2016-11-11T11:25:17.396Z,25
2016-11-11T11:26:30.992Z,30
2016-11-11T11:27:44.560Z,25
2016-11-11T11:28:58.206Z,25
2016-11-11T11:30:11.308Z,25
2016-11-11T11:31:24.941Z,25
2016-11-11T11:32:38.534Z,25
2016-11-11T11:33:52.095Z,25
2016-11-11T11:35:05.795Z,25
2016-11-11T11:36:19.370Z,20
2016-11-11T11:37:32.971Z,20
2016-11-11T11:38:46.597Z,20
2016-11-11T11:40:00.243Z,20
2016-11-11T11:41:13.460Z,20
2016-11-11T11:42:27.121Z,20
2016-11-11T11:43:40.712Z,20
2016-11-11T11:44:54.322Z,25
2016-11-11T11:46:07.878Z,25
2016-11-11T11:47:20.970Z,25
2016-11-11T11:48:34.558Z,25
2016-11-11T11:49:48.160Z,25
2016-11-11T11:51:01.748Z,25
2016-11-11T11:52:15.358Z,25
2016-11-11T11:53:28.614Z,25
2016-11-11T11:54:41.943Z,25
2016-11-11T11:55:55.537Z,25
2016-11-11T11:57:09.640Z,25
2016-11-11T11:58:23.280Z,25
2016-11-11T11:59:36.609Z,25
2016-11-11T12:00:50.196Z,25
2016-11-11T12:02:03.775Z,25
2016-11-11T12:03:17.447Z,25
2016-11-11T12:04:30.607Z,25
2016-11-11T12:05:44.173Z,25
2016-11-11T12:06:57.495Z,25
2016-11-11T12:08:11.174Z,25
2016-11-11T12:09:24.814Z,25
2016-11-11T12:10:38.384Z,25
2016-11-11T12:11:51.987Z,25
2016-11-11T12:13:05.643Z,25
2016-11-11T12:14:19.305Z,25
2016-11-11T12:15:32.873Z,25
2016-11-11T12:16:45.961Z,30
2016-11-11T12:17:59.571Z,30
2016-11-11T12:19:13.134Z,30
2016-11-11T12:20:26.901Z,30
2016-11-11T12:21:40.451Z,30
2016-11-11T12:22:54.091Z,30
2016-11-11T12:24:07.668Z,30
2016-11-11T12:25:21.318Z,30
2016-11-11T12:26:35.047Z,30
2016-11-11T12:28:20.105Z,30
2016-11-11T12:29:33.833Z,30
2016-11-11T12:30:47.453Z,30
2016-11-11T12:32:01.085Z,30
2016-11-11T12:33:14.722Z,30
2016-11-11T12:34:28.316Z,30
2016-11-11T12:35:42.024Z,30
2016-11-11T12:36:55.428Z,30
2016-11-11T12:38:09.021Z,35
2016-11-11T12:39:22.760Z,35
2016-11-11T12:40:36.557Z,35
2016-11-11T12:41:50.144Z,35
2016-11-11T12:43:03.818Z,35
2016-11-11T12:44:17.113Z,35
2016-11-11T12:45:30.952Z,35
2016-11-11T12:46:44.620Z,40
2016-11-11T12:47:58.338Z,40
2016-11-11T12:49:12.058Z,45
2016-11-11T12:50:25.664Z,50
2016-11-11T12:51:38.971Z,50
2016-11-11T12:52:52.747Z,55
2016-11-11T12:54:06.588Z,60
2016-11-11T12:55:20.225Z,65
2016-11-11T12:56:33.418Z,70
2016-11-11T12:57:46.984Z,75
2016-11-11T12:59:00.597Z,85
2016-11-11T13:00:14.189Z,85
2016-11-11T13:01:27.732Z,95
2016-11-11T13:02:41.278Z,105
2016-11-11T13:03:54.941Z,110
2016-11-11T13:05:08.449Z,120
2016-11-11T13:06:22.137Z,125
2016-11-11T13:07:35.772Z,135
2016-11-11T13:08:49.401Z,50
2016-11-11T13:10:03.432Z,150
2016-11-11T13:11:16.532Z,150
2016-11-11T13:12:30.168Z,145
2016-11-11T13:13:43.705Z,120
2016-11-11T13:14:57.467Z,110
2016-11-11T13:16:11.069Z,125
2016-11-11T13:17:24.661Z,115
2016-11-11T13:18:38.306Z,90
2016-11-11T13:19:51.926Z,165
2016-11-11T13:21:05.489Z,160
2016-11-11T13:22:19.049Z,170
2016-11-11T13:23:32.466Z,175
2016-11-11T13:24:46.082Z,170
2016-11-11T13:25:59.760Z,175
2016-11-11T13:27:13.468Z,180
2016-11-11T13:28:27.080Z,185
2016-11-11T13:29:39.844Z,190
2016-11-11T13:30:53.470Z,195
2016-11-11T13:32:07.099Z,200
2016-11-11T13:33:20.773Z,205
2016-11-11T13:34:34.442Z,205
2016-11-11T13:35:48.076Z,130
2016-11-11T13:37:01.806Z,70
2016-11-11T13:38:15.938Z,240
2016-11-11T13:39:29.569Z,125
2016-11-11T13:40:43.187Z,250
2016-11-11T13:41:56.847Z,100
2016-11-11T13:43:10.495Z,90
2016-11-11T13:44:24.115Z,190
2016-11-11T13:45:37.735Z,85
2016-11-11T13:46:51.395Z,240
2016-11-11T13:48:04.992Z,60
2016-11-11T13:49:19.155Z,60
2016-11-11T13:50:32.708Z,200
2016-11-11T13:51:46.323Z,55
2016-11-11T13:52:59.877Z,65
2016-11-11T13:54:13.869Z,185
2016-11-11T13:55:27.519Z,175
2016-11-11T13:56:41.063Z,235
2016-11-11T13:57:54.611Z,240
2016-11-11T13:59:08.283Z,230
2016-11-11T14:00:21.888Z,260
2016-11-11T14:01:34.898Z,265
2016-11-11T14:02:48.468Z,260
2016-11-11T14:04:02.088Z,210
2016-11-11T14:05:15.907Z,55
2016-11-11T14:06:28.967Z,255
2016-11-11T14:07:42.882Z,60
2016-11-11T14:08:56.490Z,65
2016-11-11T14:10:10.064Z,260
2016-11-11T14:11:23.643Z,265
2016-11-11T14:12:37.248Z,65
2016-11-11T14:13:50.878Z,255
2016-11-11T14:15:03.878Z,55
2016-11-11T14:16:17.469Z,55
2016-11-11T14:17:31.112Z,265
2016-11-11T14:18:44.813Z,270
2016-11-11T14:19:57.909Z,275
2016-11-11T14:21:11.516Z,280
2016-11-11T14:22:25.114Z,285
2016-11-11T14:23:38.705Z,290
2016-11-11T14:24:52.541Z,80
2016-11-11T14:26:06.634Z,290
2016-11-11T14:27:20.275Z,290
2016-11-11T14:28:33.916Z,305
2016-11-11T14:29:47.536Z,300
2016-11-11T14:31:01.164Z,305
2016-11-11T14:32:14.796Z,310
2016-11-11T14:33:28.483Z,315
2016-11-11T14:34:41.863Z,320
2016-11-11T14:35:54.999Z,315
2016-11-11T14:37:08.643Z,60
2016-11-11T14:38:22.360Z,50
2016-11-11T14:39:35.909Z,50
2016-11-11T14:40:49.097Z,50
2016-11-11T14:42:02.690Z,60
2016-11-11T14:43:16.266Z,335
2016-11-11T14:44:29.868Z,325
2016-11-11T14:45:43.477Z,50
2016-11-11T14:46:57.568Z,330
2016-11-11T14:48:11.218Z,320
2016-11-11T14:49:24.908Z,320
2016-11-11T14:50:38.488Z,325
2016-11-11T14:52:23.262Z,330
2016-11-11T14:53:36.970Z,335
2016-11-11T14:54:50.339Z,335
2016-11-11T14:56:04.077Z,335
2016-11-11T14:57:17.778Z,340
2016-11-11T14:58:31.421Z,340
2016-11-11T14:59:44.977Z,340
2016-11-11T15:00:58.124Z,340
2016-11-11T15:02:11.776Z,345
2016-11-11T15:03:25.474Z,315
2016-11-11T15:04:38.530Z,335
2016-11-11T15:05:52.080Z,335
2016-11-11T15:07:05.683Z,340
2016-11-11T15:08:19.322Z,340
2016-11-11T15:09:32.910Z,350
2016-11-11T15:10:46.492Z,130
2016-11-11T15:11:59.895Z,70
2016-11-11T15:13:13.549Z,190
2016-11-11T15:16:11.643Z,325
2016-11-11T15:17:25.269Z,240
2016-11-11T15:18:38.931Z,350
2016-11-11T15:19:52.511Z,360
2016-11-11T15:21:06.121Z,350
2016-11-11T15:22:19.719Z,350
2016-11-11T15:23:33.536Z,50
2016-11-11T15:24:46.863Z,50
2016-11-11T15:26:00.486Z,370
2016-11-11T15:27:14.124Z,355
2016-11-11T15:28:27.811Z,365
2016-11-11T15:29:41.471Z,370
2016-11-11T15:30:55.158Z,370
2016-11-11T15:32:39.950Z,60
2016-11-11T15:33:53.484Z,65
2016-11-11T15:35:06.649Z,205
2016-11-11T15:36:19.174Z,90
2016-11-11T15:37:32.707Z,360
2016-11-11T15:38:46.305Z,365
2016-11-11T15:39:59.397Z,40
2016-11-11T15:41:13.100Z,50
2016-11-11T15:42:26.703Z,40
2016-11-11T15:43:40.274Z,40
2016-11-11T15:44:53.893Z,55
2016-11-11T15:46:07.436Z,65
2016-11-11T15:47:21.241Z,60
2016-11-11T15:48:34.369Z,380
2016-11-11T15:49:47.917Z,375
2016-11-11T15:51:01.579Z,370
2016-11-11T15:52:15.334Z,365
2016-11-11T15:53:28.956Z,375
2016-11-11T15:54:42.852Z,380
2016-11-11T15:55:56.383Z,375
2016-11-11T15:57:09.795Z,355
2016-11-11T15:58:23.122Z,375
2016-11-11T15:59:36.170Z,370
2016-11-11T16:00:49.790Z,375
2016-11-11T16:02:03.533Z,375
2016-11-11T16:03:17.047Z,375
2016-11-11T16:04:30.380Z,75
2016-11-11T16:05:44.078Z,135
2016-11-11T16:06:57.699Z,75
2016-11-11T16:08:11.252Z,55
2016-11-11T16:09:24.802Z,50
2016-11-11T16:10:37.935Z,215
2016-11-11T16:11:51.521Z,50
2016-11-11T16:13:04.873Z,365
2016-11-11T16:14:18.601Z,355
2016-11-11T16:15:32.249Z,55
2016-11-11T16:16:45.976Z,60
2016-11-11T16:17:59.649Z,385
2016-11-11T16:19:13.185Z,370
2016-11-11T16:20:26.835Z,380
2016-11-11T16:21:40.238Z,390
2016-11-11T16:22:53.899Z,75
2016-11-11T16:24:07.578Z,60
2016-11-11T16:25:20.668Z,360
2016-11-11T16:26:34.747Z,365
2016-11-11T16:27:48.408Z,370
2016-11-11T16:29:01.171Z,355
2016-11-11T16:30:14.771Z,365
2016-11-11T16:31:28.491Z,370
2016-11-11T16:32:42.070Z,365
2016-11-11T16:33:55.704Z,305
2016-11-11T16:35:09.778Z,250
2016-11-11T16:36:23.094Z,255
2016-11-11T16:37:36.684Z,325
2016-11-11T16:38:50.314Z,330
2016-11-11T16:40:03.913Z,335
2016-11-11T16:41:17.582Z,305
2016-11-11T16:42:31.262Z,370
2016-11-11T16:43:44.842Z,365
2016-11-11T16:44:58.233Z,365
2016-11-11T16:46:11.874Z,355
2016-11-11T16:47:25.435Z,355
2016-11-11T16:48:39.153Z,200
2016-11-11T16:49:52.831Z,315
2016-11-11T16:51:05.816Z,360
2016-11-11T16:52:19.441Z,385
2016-11-11T16:53:33.033Z,75
2016-11-11T16:54:46.694Z,165
2016-11-11T16:56:00.384Z,350
2016-11-11T16:57:14.028Z,335
2016-11-11T16:58:27.635Z,340
2016-11-11T16:59:41.079Z,345
2016-11-11T17:00:54.374Z,240
2016-11-11T17:02:07.197Z,110
2016-11-11T17:03:20.591Z,65
2016-11-11T17:04:34.225Z,55
2016-11-11T17:05:47.862Z,330
2016-11-11T17:07:01.541Z,335
2016-11-11T17:08:15.132Z,325
2016-11-11T17:09:28.720Z,315
2016-11-11T17:10:42.409Z,320
2016-11-11T17:11:55.958Z,320
2016-11-11T17:13:09.058Z,320
2016-11-11T17:14:22.088Z,320
2016-11-11T17:15:35.771Z,315
2016-11-11T17:16:49.433Z,315
2016-11-11T17:18:02.489Z,315
2016-11-11T17:19:15.619Z,310
2016-11-11T17:20:29.309Z,45
2016-11-11T17:21:42.977Z,315
2016-11-11T17:22:56.607Z,305
2016-11-11T17:24:10.233Z,305
2016-11-11T17:25:23.283Z,305
2016-11-11T17:26:36.836Z,290
2016-11-11T17:27:50.393Z,275
2016-11-11T17:29:03.600Z,285
2016-11-11T17:30:16.650Z,290
2016-11-11T17:31:30.279Z,295
2016-11-11T17:32:43.908Z,290
2016-11-11T17:33:57.075Z,275
2016-11-11T17:35:10.712Z,275
2016-11-11T17:36:24.450Z,270
2016-11-11T17:37:37.222Z,275
2016-11-11T17:39:21.941Z,275
2016-11-11T17:40:35.577Z,280
2016-11-11T17:41:49.109Z,275
2016-11-11T17:43:02.747Z,265
2016-11-11T17:44:16.469Z,270
2016-11-11T17:45:29.827Z,250
2016-11-11T17:46:42.985Z,175
2016-11-11T17:47:56.625Z,275
2016-11-11T17:49:09.889Z,275
2016-11-11T17:50:23.539Z,275
2016-11-11T17:51:37.246Z,155